LHE weather

Alama Iqbal International Airport
Lahore, Punjab, Pakistan

Public forecast

Using degrees Celsius for public forecast. Weather courtesy of forecast.io.

Current aviation weather report (METAR) for Alama Iqbal International Airport

Retrieved 2020/05/27 03:25 UTC (0 seconds ago):

OPLA 270325Z 12005KT 8000 NSC 34/16 Q1000 RMK QFE973 RMK A2953

Aviation forecast (TAF) for Alama Iqbal International Airport

Retrieved 2020-05-27 00:07 UTC (3 hours ago):

TAF OPLA 262145Z 2700/2806 34010KT 5000 HZ NSC TX44/2710Z TN29/2700Z TEMPO 2609/2613 34015G25KT FM271500 32005KT 4000 FU NSC